Topia, North Carolina
Current Conditions -  °F | °C
As of 7:35 PM on Monday 22 Dec 2014 (Local Time) from KGEV Reporting Station
Moderate Fog Moderate Fog  
Wind Chill: 34°   Ceiling: 300
Heat Index: 34°   Visibility: 0.25mi
Dew Point: 34°   Wind: 3mph
Humidity: 100%   Direction: 170°S
Pressure: 29.99"   Gusts: NA
Location:  36.4835°N, 81.3122°W
Report Text: KGEV 230035Z AUTO 17003KT 1/4SM FG OVC003 01/01 A2999 RMK AO2 T00120012
Loading
Personal Weather Stations






























Interactive Weather Map New forecast layout! Learn more

10-Day Weather Forecast

Advertisements
Track Severe Weather on mobile